sensor_id;sensor_type;location;lat;lon;timestamp;P1;durP1;ratioP1;P2;durP2;ratioP2
10465;SDS011;5280;42.600;23.556;2023-03-17T00:02:22;9.53;;;8.53;;
10465;SDS011;5280;42.600;23.556;2023-03-17T00:04:49;10.93;;;9.00;;
10465;SDS011;5280;42.600;23.556;2023-03-17T00:07:16;10.13;;;9.13;;
10465;SDS011;5280;42.600;23.556;2023-03-17T00:09:43;10.00;;;8.80;;
10465;SDS011;5280;42.600;23.556;2023-03-17T00:12:10;9.40;;;8.50;;
10465;SDS011;5280;42.600;23.556;2023-03-17T00:14:38;12.27;;;8.60;;
10465;SDS011;5280;42.600;23.556;2023-03-17T00:17:05;9.80;;;8.80;;
10465;SDS011;5280;42.600;23.556;2023-03-17T00:19:36;9.03;;;8.13;;
10465;SDS011;5280;42.600;23.556;2023-03-17T00:22:05;9.23;;;8.10;;
10465;SDS011;5280;42.600;23.556;2023-03-17T00:24:39;8.60;;;7.70;;
10465;SDS011;5280;42.600;23.556;2023-03-17T00:27:10;9.63;;;8.23;;
10465;SDS011;5280;42.600;23.556;2023-03-17T00:29:37;8.80;;;7.90;;
10465;SDS011;5280;42.600;23.556;2023-03-17T00:32:05;9.53;;;8.10;;
10465;SDS011;5280;42.600;23.556;2023-03-17T00:34:43;8.43;;;7.53;;
10465;SDS011;5280;42.600;23.556;2023-03-17T00:37:10;8.27;;;7.40;;
10465;SDS011;5280;42.600;23.556;2023-03-17T00:39:38;8.63;;;7.27;;
10465;SDS011;5280;42.600;23.556;2023-03-17T00:42:05;8.40;;;7.60;;
10465;SDS011;5280;42.600;23.556;2023-03-17T00:44:32;8.27;;;7.43;;
10465;SDS011;5280;42.600;23.556;2023-03-17T00:46:59;8.43;;;7.60;;
10465;SDS011;5280;42.600;23.556;2023-03-17T00:49:27;9.00;;;7.17;;
10465;SDS011;5280;42.600;23.556;2023-03-17T00:51:55;7.53;;;6.70;;
10465;SDS011;5280;42.600;23.556;2023-03-17T00:54:22;8.97;;;7.43;;
10465;SDS011;5280;42.600;23.556;2023-03-17T00:56:49;7.57;;;6.77;;
10465;SDS011;5280;42.600;23.556;2023-03-17T00:59:17;8.73;;;6.90;;
10465;SDS011;5280;42.600;23.556;2023-03-17T01:01:49;8.50;;;7.10;;
10465;SDS011;5280;42.600;23.556;2023-03-17T01:04:16;9.20;;;7.70;;
10465;SDS011;5280;42.600;23.556;2023-03-17T01:06:43;8.10;;;7.30;;
10465;SDS011;5280;42.600;23.556;2023-03-17T01:09:12;7.97;;;7.13;;
10465;SDS011;5280;42.600;23.556;2023-03-17T01:11:42;7.77;;;6.70;;
10465;SDS011;5280;42.600;23.556;2023-03-17T01:14:09;7.87;;;7.07;;
10465;SDS011;5280;42.600;23.556;2023-03-17T01:16:37;7.37;;;6.67;;
10465;SDS011;5280;42.600;23.556;2023-03-17T01:19:04;7.60;;;6.80;;
10465;SDS011;5280;42.600;23.556;2023-03-17T01:21:31;9.00;;;6.67;;
10465;SDS011;5280;42.600;23.556;2023-03-17T01:23:58;7.50;;;6.60;;
10465;SDS011;5280;42.600;23.556;2023-03-17T01:26:27;7.93;;;7.13;;
10465;SDS011;5280;42.600;23.556;2023-03-17T01:28:54;8.73;;;7.23;;
10465;SDS011;5280;42.600;23.556;2023-03-17T01:31:20;7.90;;;7.10;;
10465;SDS011;5280;42.600;23.556;2023-03-17T01:33:48;7.93;;;7.13;;
10465;SDS011;5280;42.600;23.556;2023-03-17T01:36:15;8.97;;;6.77;;
10465;SDS011;5280;42.600;23.556;2023-03-17T01:38:42;7.00;;;6.30;;
10465;SDS011;5280;42.600;23.556;2023-03-17T01:41:12;7.40;;;6.70;;
10465;SDS011;5280;42.600;23.556;2023-03-17T01:43:40;7.77;;;6.97;;
10465;SDS011;5280;42.600;23.556;2023-03-17T01:48:55;8.03;;;6.63;;
10465;SDS011;5280;42.600;23.556;2023-03-17T01:51:31;8.33;;;6.70;;
10465;SDS011;5280;42.600;23.556;2023-03-17T01:54:04;6.90;;;6.03;;
10465;SDS011;5280;42.600;23.556;2023-03-17T01:56:34;7.00;;;6.30;;
10465;SDS011;5280;42.600;23.556;2023-03-17T01:59:05;6.73;;;6.13;;
10465;SDS011;5280;42.600;23.556;2023-03-17T02:01:36;6.97;;;6.27;;
10465;SDS011;5280;42.600;23.556;2023-03-17T02:04:06;6.93;;;6.23;;
10465;SDS011;5280;42.600;23.556;2023-03-17T02:06:34;6.77;;;5.53;;
10465;SDS011;5280;42.600;23.556;2023-03-17T02:09:01;5.93;;;5.37;;
10465;SDS011;5280;42.600;23.556;2023-03-17T02:11:28;6.50;;;5.90;;
10465;SDS011;5280;42.600;23.556;2023-03-17T02:13:56;6.00;;;5.43;;
10465;SDS011;5280;42.600;23.556;2023-03-17T02:16:24;6.37;;;5.73;;
10465;SDS011;5280;42.600;23.556;2023-03-17T02:18:51;6.20;;;5.60;;
10465;SDS011;5280;42.600;23.556;2023-03-17T02:21:39;6.00;;;5.40;;
10465;SDS011;5280;42.600;23.556;2023-03-17T02:24:09;5.43;;;4.93;;
10465;SDS011;5280;42.600;23.556;2023-03-17T02:26:41;5.50;;;5.00;;
10465;SDS011;5280;42.600;23.556;2023-03-17T02:29:10;5.00;;;4.50;;
10465;SDS011;5280;42.600;23.556;2023-03-17T02:31:37;4.83;;;4.13;;
10465;SDS011;5280;42.600;23.556;2023-03-17T02:34:05;5.17;;;4.67;;
10465;SDS011;5280;42.600;23.556;2023-03-17T02:36:32;4.60;;;4.13;;
10465;SDS011;5280;42.600;23.556;2023-03-17T02:39:00;4.67;;;4.13;;
10465;SDS011;5280;42.600;23.556;2023-03-17T02:41:27;4.47;;;4.07;;
10465;SDS011;5280;42.600;23.556;2023-03-17T02:43:53;4.30;;;3.80;;
10465;SDS011;5280;42.600;23.556;2023-03-17T02:46:21;4.50;;;4.17;;
10465;SDS011;5280;42.600;23.556;2023-03-17T02:48:48;6.40;;;3.70;;
10465;SDS011;5280;42.600;23.556;2023-03-17T02:51:15;3.43;;;3.13;;
10465;SDS011;5280;42.600;23.556;2023-03-17T02:53:42;3.90;;;3.53;;
10465;SDS011;5280;42.600;23.556;2023-03-17T02:56:15;3.63;;;3.33;;
10465;SDS011;5280;42.600;23.556;2023-03-17T02:58:42;3.83;;;3.53;;
10465;SDS011;5280;42.600;23.556;2023-03-17T03:01:11;4.90;;;4.30;;
10465;SDS011;5280;42.600;23.556;2023-03-17T03:03:39;4.13;;;3.77;;
10465;SDS011;5280;42.600;23.556;2023-03-17T03:06:06;3.90;;;3.60;;
10465;SDS011;5280;42.600;23.556;2023-03-17T03:08:33;4.20;;;3.80;;
10465;SDS011;5280;42.600;23.556;2023-03-17T03:11:00;3.93;;;3.53;;
10465;SDS011;5280;42.600;23.556;2023-03-17T03:13:30;4.40;;;4.00;;
10465;SDS011;5280;42.600;23.556;2023-03-17T03:15:57;4.00;;;3.60;;
10465;SDS011;5280;42.600;23.556;2023-03-17T03:18:24;4.67;;;4.20;;
10465;SDS011;5280;42.600;23.556;2023-03-17T03:20:52;4.10;;;3.70;;
10465;SDS011;5280;42.600;23.556;2023-03-17T03:23:19;4.90;;;4.40;;
10465;SDS011;5280;42.600;23.556;2023-03-17T03:25:46;4.10;;;3.80;;
10465;SDS011;5280;42.600;23.556;2023-03-17T03:28:13;4.13;;;3.83;;
10465;SDS011;5280;42.600;23.556;2023-03-17T03:30:41;3.53;;;3.23;;
10465;SDS011;5280;42.600;23.556;2023-03-17T03:33:09;3.40;;;3.10;;
10465;SDS011;5280;42.600;23.556;2023-03-17T03:35:38;3.57;;;3.27;;
10465;SDS011;5280;42.600;23.556;2023-03-17T03:38:05;3.30;;;3.00;;
10465;SDS011;5280;42.600;23.556;2023-03-17T03:40:32;3.30;;;3.00;;
10465;SDS011;5280;42.600;23.556;2023-03-17T03:42:59;3.47;;;3.17;;
10465;SDS011;5280;42.600;23.556;2023-03-17T03:45:26;3.10;;;2.90;;
10465;SDS011;5280;42.600;23.556;2023-03-17T03:47:54;3.37;;;3.07;;
10465;SDS011;5280;42.600;23.556;2023-03-17T03:50:21;3.13;;;2.87;;
10465;SDS011;5280;42.600;23.556;2023-03-17T03:52:48;2.90;;;2.60;;
10465;SDS011;5280;42.600;23.556;2023-03-17T03:55:16;2.90;;;2.70;;
10465;SDS011;5280;42.600;23.556;2023-03-17T03:57:42;3.60;;;3.27;;
10465;SDS011;5280;42.600;23.556;2023-03-17T04:00:10;2.93;;;2.73;;
10465;SDS011;5280;42.600;23.556;2023-03-17T04:02:39;3.10;;;2.80;;
10465;SDS011;5280;42.600;23.556;2023-03-17T04:05:09;3.10;;;2.80;;
10465;SDS011;5280;42.600;23.556;2023-03-17T04:07:37;2.77;;;2.57;;
10465;SDS011;5280;42.600;23.556;2023-03-17T04:10:05;3.33;;;3.03;;
10465;SDS011;5280;42.600;23.556;2023-03-17T04:12:32;3.23;;;2.97;;
10465;SDS011;5280;42.600;23.556;2023-03-17T04:14:59;2.80;;;2.60;;
10465;SDS011;5280;42.600;23.556;2023-03-17T04:17:26;3.17;;;2.87;;
10465;SDS011;5280;42.600;23.556;2023-03-17T04:19:53;3.03;;;2.77;;
10465;SDS011;5280;42.600;23.556;2023-03-17T04:22:21;2.87;;;2.67;;
10465;SDS011;5280;42.600;23.556;2023-03-17T04:24:48;3.10;;;2.73;;
10465;SDS011;5280;42.600;23.556;2023-03-17T04:27:15;3.13;;;2.87;;
10465;SDS011;5280;42.600;23.556;2023-03-17T04:29:42;3.23;;;2.63;;
10465;SDS011;5280;42.600;23.556;2023-03-17T04:32:11;2.40;;;2.20;;
10465;SDS011;5280;42.600;23.556;2023-03-17T04:34:39;2.80;;;2.60;;
10465;SDS011;5280;42.600;23.556;2023-03-17T04:37:06;2.63;;;2.43;;
10465;SDS011;5280;42.600;23.556;2023-03-17T04:39:34;3.10;;;2.70;;
10465;SDS011;5280;42.600;23.556;2023-03-17T04:42:02;2.70;;;2.50;;
10465;SDS011;5280;42.600;23.556;2023-03-17T04:44:29;3.17;;;2.90;;
10465;SDS011;5280;42.600;23.556;2023-03-17T04:46:56;2.93;;;2.70;;
10465;SDS011;5280;42.600;23.556;2023-03-17T04:49:23;3.00;;;2.77;;
10465;SDS011;5280;42.600;23.556;2023-03-17T04:51:50;3.07;;;2.77;;
10465;SDS011;5280;42.600;23.556;2023-03-17T04:54:17;3.30;;;2.70;;
10465;SDS011;5280;42.600;23.556;2023-03-17T04:56:45;3.13;;;2.83;;
10465;SDS011;5280;42.600;23.556;2023-03-17T04:59:12;2.90;;;2.60;;
10465;SDS011;5280;42.600;23.556;2023-03-17T05:01:40;3.47;;;3.00;;
10465;SDS011;5280;42.600;23.556;2023-03-17T05:04:06;2.73;;;2.53;;
10465;SDS011;5280;42.600;23.556;2023-03-17T05:06:33;2.87;;;2.60;;
10465;SDS011;5280;42.600;23.556;2023-03-17T05:09:01;2.97;;;2.77;;
10465;SDS011;5280;42.600;23.556;2023-03-17T05:11:29;2.97;;;2.77;;
10465;SDS011;5280;42.600;23.556;2023-03-17T05:13:57;3.63;;;2.93;;
10465;SDS011;5280;42.600;23.556;2023-03-17T05:16:26;2.87;;;2.67;;
10465;SDS011;5280;42.600;23.556;2023-03-17T05:19:01;3.30;;;3.00;;
10465;SDS011;5280;42.600;23.556;2023-03-17T05:21:29;3.17;;;2.50;;
10465;SDS011;5280;42.600;23.556;2023-03-17T05:23:58;2.93;;;2.73;;
10465;SDS011;5280;42.600;23.556;2023-03-17T05:26:25;3.37;;;3.07;;
10465;SDS011;5280;42.600;23.556;2023-03-17T05:28:52;4.43;;;2.83;;
10465;SDS011;5280;42.600;23.556;2023-03-17T05:31:20;2.70;;;2.50;;
10465;SDS011;5280;42.600;23.556;2023-03-17T05:33:47;2.93;;;2.73;;
10465;SDS011;5280;42.600;23.556;2023-03-17T05:36:15;2.47;;;2.27;;
10465;SDS011;5280;42.600;23.556;2023-03-17T05:38:42;3.37;;;2.97;;
10465;SDS011;5280;42.600;23.556;2023-03-17T05:41:09;3.20;;;2.90;;
10465;SDS011;5280;42.600;23.556;2023-03-17T05:43:36;3.20;;;2.90;;
10465;SDS011;5280;42.600;23.556;2023-03-17T05:46:04;2.90;;;2.70;;
10465;SDS011;5280;42.600;23.556;2023-03-17T05:48:32;2.80;;;2.60;;
10465;SDS011;5280;42.600;23.556;2023-03-17T05:50:59;3.07;;;2.77;;
10465;SDS011;5280;42.600;23.556;2023-03-17T05:53:26;2.70;;;2.50;;
10465;SDS011;5280;42.600;23.556;2023-03-17T05:55:53;3.23;;;2.93;;
10465;SDS011;5280;42.600;23.556;2023-03-17T05:58:21;3.10;;;2.80;;
10465;SDS011;5280;42.600;23.556;2023-03-17T06:00:47;3.37;;;3.07;;
10465;SDS011;5280;42.600;23.556;2023-03-17T06:03:15;3.73;;;3.33;;
10465;SDS011;5280;42.600;23.556;2023-03-17T06:05:43;3.43;;;3.13;;
10465;SDS011;5280;42.600;23.556;2023-03-17T06:08:11;3.27;;;2.83;;
10465;SDS011;5280;42.600;23.556;2023-03-17T06:10:38;3.10;;;2.80;;
10465;SDS011;5280;42.600;23.556;2023-03-17T06:13:05;3.87;;;3.57;;
10465;SDS011;5280;42.600;23.556;2023-03-17T06:15:32;3.87;;;3.47;;
10465;SDS011;5280;42.600;23.556;2023-03-17T06:18:00;3.73;;;3.30;;
10465;SDS011;5280;42.600;23.556;2023-03-17T06:20:29;4.33;;;3.93;;
10465;SDS011;5280;42.600;23.556;2023-03-17T06:22:57;6.20;;;4.37;;
10465;SDS011;5280;42.600;23.556;2023-03-17T06:25:24;7.87;;;7.03;;
10465;SDS011;5280;42.600;23.556;2023-03-17T06:27:51;7.73;;;6.10;;
10465;SDS011;5280;42.600;23.556;2023-03-17T06:30:20;7.77;;;6.07;;
10465;SDS011;5280;42.600;23.556;2023-03-17T06:32:47;6.03;;;5.43;;
10465;SDS011;5280;42.600;23.556;2023-03-17T06:35:14;8.63;;;5.47;;
10465;SDS011;5280;42.600;23.556;2023-03-17T06:37:42;6.53;;;5.83;;
10465;SDS011;5280;42.600;23.556;2023-03-17T06:40:11;7.40;;;5.93;;
10465;SDS011;5280;42.600;23.556;2023-03-17T06:42:38;7.83;;;5.83;;
10465;SDS011;5280;42.600;23.556;2023-03-17T06:45:06;7.83;;;5.87;;
10465;SDS011;5280;42.600;23.556;2023-03-17T06:47:34;6.43;;;5.27;;
10465;SDS011;5280;42.600;23.556;2023-03-17T06:50:06;7.47;;;6.10;;
10465;SDS011;5280;42.600;23.556;2023-03-17T06:52:35;6.77;;;5.80;;
10465;SDS011;5280;42.600;23.556;2023-03-17T06:55:02;7.33;;;6.30;;
10465;SDS011;5280;42.600;23.556;2023-03-17T06:57:32;5.70;;;5.10;;
10465;SDS011;5280;42.600;23.556;2023-03-17T07:00:00;6.30;;;5.03;;
10465;SDS011;5280;42.600;23.556;2023-03-17T07:02:29;6.00;;;5.23;;
10465;SDS011;5280;42.600;23.556;2023-03-17T07:04:56;6.57;;;5.57;;
10465;SDS011;5280;42.600;23.556;2023-03-17T07:07:24;8.40;;;6.47;;
10465;SDS011;5280;42.600;23.556;2023-03-17T07:09:50;9.10;;;6.83;;
10465;SDS011;5280;42.600;23.556;2023-03-17T07:12:18;6.53;;;5.53;;
10465;SDS011;5280;42.600;23.556;2023-03-17T07:14:47;6.70;;;5.43;;
10465;SDS011;5280;42.600;23.556;2023-03-17T07:17:14;7.20;;;5.20;;
10465;SDS011;5280;42.600;23.556;2023-03-17T07:19:42;7.10;;;5.70;;
10465;SDS011;5280;42.600;23.556;2023-03-17T07:22:10;7.37;;;5.83;;
10465;SDS011;5280;42.600;23.556;2023-03-17T07:24:38;5.23;;;4.73;;
10465;SDS011;5280;42.600;23.556;2023-03-17T07:27:06;8.80;;;5.63;;
10465;SDS011;5280;42.600;23.556;2023-03-17T07:29:32;10.33;;;8.77;;
10465;SDS011;5280;42.600;23.556;2023-03-17T07:32:01;9.53;;;7.33;;
10465;SDS011;5280;42.600;23.556;2023-03-17T07:34:29;7.47;;;5.77;;
10465;SDS011;5280;42.600;23.556;2023-03-17T07:36:56;7.53;;;6.00;;
10465;SDS011;5280;42.600;23.556;2023-03-17T07:39:23;7.00;;;6.20;;
10465;SDS011;5280;42.600;23.556;2023-03-17T07:41:50;7.13;;;6.30;;
10465;SDS011;5280;42.600;23.556;2023-03-17T07:44:19;6.73;;;5.90;;
10465;SDS011;5280;42.600;23.556;2023-03-17T07:46:46;5.90;;;5.00;;
10465;SDS011;5280;42.600;23.556;2023-03-17T07:49:15;5.50;;;4.83;;
10465;SDS011;5280;42.600;23.556;2023-03-17T07:51:42;4.90;;;4.40;;
10465;SDS011;5280;42.600;23.556;2023-03-17T07:54:09;3.50;;;3.20;;
10465;SDS011;5280;42.600;23.556;2023-03-17T07:56:36;4.87;;;4.40;;
10465;SDS011;5280;42.600;23.556;2023-03-17T07:59:04;4.27;;;3.83;;
10465;SDS011;5280;42.600;23.556;2023-03-17T08:01:31;4.60;;;4.20;;
10465;SDS011;5280;42.600;23.556;2023-03-17T08:03:58;4.40;;;3.93;;
10465;SDS011;5280;42.600;23.556;2023-03-17T08:06:26;3.93;;;3.43;;
10465;SDS011;5280;42.600;23.556;2023-03-17T08:08:54;4.60;;;4.20;;
10465;SDS011;5280;42.600;23.556;2023-03-17T08:11:23;4.20;;;3.80;;
10465;SDS011;5280;42.600;23.556;2023-03-17T08:13:50;4.90;;;4.30;;
10465;SDS011;5280;42.600;23.556;2023-03-17T08:16:17;5.60;;;5.10;;
10465;SDS011;5280;42.600;23.556;2023-03-17T08:18:44;5.27;;;4.77;;
10465;SDS011;5280;42.600;23.556;2023-03-17T08:21:11;5.00;;;4.10;;
10465;SDS011;5280;42.600;23.556;2023-03-17T08:23:40;4.60;;;4.20;;
10465;SDS011;5280;42.600;23.556;2023-03-17T08:26:07;4.23;;;3.83;;
10465;SDS011;5280;42.600;23.556;2023-03-17T08:28:34;4.30;;;3.90;;
10465;SDS011;5280;42.600;23.556;2023-03-17T08:31:05;4.83;;;3.93;;
10465;SDS011;5280;42.600;23.556;2023-03-17T08:33:33;3.93;;;3.50;;
10465;SDS011;5280;42.600;23.556;2023-03-17T08:36:02;3.97;;;3.43;;
10465;SDS011;5280;42.600;23.556;2023-03-17T08:38:31;7.80;;;3.70;;
10465;SDS011;5280;42.600;23.556;2023-03-17T08:41:00;3.80;;;3.40;;
10465;SDS011;5280;42.600;23.556;2023-03-17T08:43:27;3.87;;;3.57;;
10465;SDS011;5280;42.600;23.556;2023-03-17T08:45:59;4.23;;;3.83;;
10465;SDS011;5280;42.600;23.556;2023-03-17T08:48:28;5.03;;;3.77;;
10465;SDS011;5280;42.600;23.556;2023-03-17T08:50:55;3.83;;;3.30;;
10465;SDS011;5280;42.600;23.556;2023-03-17T08:53:22;3.90;;;3.50;;
10465;SDS011;5280;42.600;23.556;2023-03-17T08:55:50;4.27;;;3.63;;
10465;SDS011;5280;42.600;23.556;2023-03-17T08:58:18;4.40;;;3.90;;
10465;SDS011;5280;42.600;23.556;2023-03-17T09:00:45;4.60;;;4.20;;
10465;SDS011;5280;42.600;23.556;2023-03-17T09:03:13;4.07;;;3.43;;
10465;SDS011;5280;42.600;23.556;2023-03-17T09:05:40;3.87;;;3.57;;
10465;SDS011;5280;42.600;23.556;2023-03-17T09:08:08;4.33;;;3.00;;
10465;SDS011;5280;42.600;23.556;2023-03-17T09:10:36;3.83;;;3.27;;
10465;SDS011;5280;42.600;23.556;2023-03-17T09:13:04;3.40;;;3.10;;
10465;SDS011;5280;42.600;23.556;2023-03-17T09:15:32;2.30;;;1.90;;
10465;SDS011;5280;42.600;23.556;2023-03-17T09:17:59;2.93;;;2.73;;
10465;SDS011;5280;42.600;23.556;2023-03-17T09:20:27;2.90;;;2.70;;
10465;SDS011;5280;42.600;23.556;2023-03-17T09:22:54;4.07;;;3.30;;
10465;SDS011;5280;42.600;23.556;2023-03-17T09:25:21;3.33;;;3.03;;
10465;SDS011;5280;42.600;23.556;2023-03-17T09:27:48;4.17;;;3.77;;
10465;SDS011;5280;42.600;23.556;2023-03-17T09:30:15;4.13;;;3.47;;
10465;SDS011;5280;42.600;23.556;2023-03-17T09:32:44;3.73;;;3.43;;
10465;SDS011;5280;42.600;23.556;2023-03-17T09:35:11;4.80;;;4.10;;
10465;SDS011;5280;42.600;23.556;2023-03-17T09:37:38;4.57;;;4.17;;
10465;SDS011;5280;42.600;23.556;2023-03-17T09:40:05;4.30;;;3.87;;
10465;SDS011;5280;42.600;23.556;2023-03-17T09:42:38;3.87;;;3.57;;
10465;SDS011;5280;42.600;23.556;2023-03-17T09:45:16;3.80;;;3.50;;
10465;SDS011;5280;42.600;23.556;2023-03-17T09:47:57;4.37;;;3.97;;
10465;SDS011;5280;42.600;23.556;2023-03-17T09:50:41;4.70;;;3.80;;
10465;SDS011;5280;42.600;23.556;2023-03-17T09:53:13;5.37;;;4.87;;
10465;SDS011;5280;42.600;23.556;2023-03-17T09:55:43;5.37;;;4.87;;
10465;SDS011;5280;42.600;23.556;2023-03-17T09:58:15;5.10;;;4.70;;
10465;SDS011;5280;42.600;23.556;2023-03-17T10:00:45;8.50;;;4.47;;
10465;SDS011;5280;42.600;23.556;2023-03-17T10:03:14;5.13;;;4.63;;
10465;SDS011;5280;42.600;23.556;2023-03-17T10:05:41;5.03;;;4.50;;
10465;SDS011;5280;42.600;23.556;2023-03-17T10:08:10;5.83;;;5.33;;
10465;SDS011;5280;42.600;23.556;2023-03-17T10:10:41;6.60;;;5.90;;
10465;SDS011;5280;42.600;23.556;2023-03-17T10:13:15;5.70;;;5.17;;
10465;SDS011;5280;42.600;23.556;2023-03-17T10:15:53;4.87;;;4.37;;
10465;SDS011;5280;42.600;23.556;2023-03-17T10:18:28;5.73;;;5.10;;
10465;SDS011;5280;42.600;23.556;2023-03-17T10:20:58;5.63;;;5.00;;
10465;SDS011;5280;42.600;23.556;2023-03-17T10:23:28;7.67;;;4.90;;
10465;SDS011;5280;42.600;23.556;2023-03-17T10:25:59;4.40;;;4.00;;
10465;SDS011;5280;42.600;23.556;2023-03-17T10:28:32;5.17;;;4.50;;
10465;SDS011;5280;42.600;23.556;2023-03-17T10:31:10;4.23;;;3.83;;
10465;SDS011;5280;42.600;23.556;2023-03-17T10:33:42;4.50;;;3.83;;
10465;SDS011;5280;42.600;23.556;2023-03-17T10:36:13;4.57;;;4.17;;
10465;SDS011;5280;42.600;23.556;2023-03-17T10:38:41;4.20;;;3.80;;
10465;SDS011;5280;42.600;23.556;2023-03-17T10:41:18;4.97;;;4.40;;
10465;SDS011;5280;42.600;23.556;2023-03-17T10:43:47;5.17;;;4.63;;
10465;SDS011;5280;42.600;23.556;2023-03-17T10:46:17;5.13;;;4.40;;
10465;SDS011;5280;42.600;23.556;2023-03-17T10:48:51;4.33;;;3.93;;
10465;SDS011;5280;42.600;23.556;2023-03-17T10:51:24;5.57;;;3.43;;
10465;SDS011;5280;42.600;23.556;2023-03-17T10:53:58;3.63;;;3.33;;
10465;SDS011;5280;42.600;23.556;2023-03-17T10:56:29;5.07;;;4.13;;
10465;SDS011;5280;42.600;23.556;2023-03-17T10:59:03;4.70;;;4.30;;
10465;SDS011;5280;42.600;23.556;2023-03-17T11:01:34;4.50;;;4.10;;
10465;SDS011;5280;42.600;23.556;2023-03-17T11:06:55;7.23;;;4.20;;
10465;SDS011;5280;42.600;23.556;2023-03-17T11:09:23;3.20;;;3.00;;
10465;SDS011;5280;42.600;23.556;2023-03-17T11:12:06;3.27;;;2.97;;
10465;SDS011;5280;42.600;23.556;2023-03-17T11:14:43;4.50;;;3.80;;
10465;SDS011;5280;42.600;23.556;2023-03-17T11:17:12;3.80;;;3.40;;
10465;SDS011;5280;42.600;23.556;2023-03-17T11:19:47;4.00;;;3.70;;
10465;SDS011;5280;42.600;23.556;2023-03-17T11:22:19;2.67;;;2.47;;
10465;SDS011;5280;42.600;23.556;2023-03-17T11:24:55;3.23;;;2.93;;
10465;SDS011;5280;42.600;23.556;2023-03-17T11:27:31;3.43;;;3.13;;
10465;SDS011;5280;42.600;23.556;2023-03-17T11:30:07;3.67;;;2.70;;
10465;SDS011;5280;42.600;23.556;2023-03-17T11:32:43;2.70;;;2.50;;
10465;SDS011;5280;42.600;23.556;2023-03-17T11:35:21;2.60;;;2.40;;
10465;SDS011;5280;42.600;23.556;2023-03-17T11:38:08;2.73;;;2.27;;
10465;SDS011;5280;42.600;23.556;2023-03-17T11:40:48;3.07;;;2.87;;
10465;SDS011;5280;42.600;23.556;2023-03-17T11:43:27;4.03;;;3.10;;
10465;SDS011;5280;42.600;23.556;2023-03-17T11:46:01;2.70;;;2.50;;
10465;SDS011;5280;42.600;23.556;2023-03-17T11:48:41;4.90;;;2.90;;
10465;SDS011;5280;42.600;23.556;2023-03-17T11:51:17;2.57;;;2.37;;
10465;SDS011;5280;42.600;23.556;2023-03-17T11:53:56;2.90;;;2.70;;
10465;SDS011;5280;42.600;23.556;2023-03-17T11:56:34;3.43;;;3.13;;
10465;SDS011;5280;42.600;23.556;2023-03-17T11:59:09;3.27;;;3.00;;
10465;SDS011;5280;42.600;23.556;2023-03-17T12:01:55;3.43;;;3.13;;
10465;SDS011;5280;42.600;23.556;2023-03-17T12:04:26;3.37;;;3.07;;
10465;SDS011;5280;42.600;23.556;2023-03-17T12:07:00;3.40;;;3.10;;
10465;SDS011;5280;42.600;23.556;2023-03-17T12:09:35;3.53;;;3.23;;
10465;SDS011;5280;42.600;23.556;2023-03-17T12:12:06;4.00;;;3.60;;
10465;SDS011;5280;42.600;23.556;2023-03-17T12:14:37;3.70;;;3.40;;
10465;SDS011;5280;42.600;23.556;2023-03-17T12:17:09;4.00;;;3.20;;
10465;SDS011;5280;42.600;23.556;2023-03-17T12:19:43;3.57;;;3.00;;
10465;SDS011;5280;42.600;23.556;2023-03-17T12:22:22;3.40;;;2.80;;
10465;SDS011;5280;42.600;23.556;2023-03-17T12:24:55;3.37;;;3.07;;
10465;SDS011;5280;42.600;23.556;2023-03-17T12:27:31;6.93;;;3.97;;
10465;SDS011;5280;42.600;23.556;2023-03-17T12:30:04;5.57;;;3.97;;
10465;SDS011;5280;42.600;23.556;2023-03-17T12:32:43;4.77;;;3.23;;
10465;SDS011;5280;42.600;23.556;2023-03-17T12:35:26;3.00;;;2.77;;
10465;SDS011;5280;42.600;23.556;2023-03-17T12:37:58;3.50;;;3.20;;
10465;SDS011;5280;42.600;23.556;2023-03-17T12:40:29;3.20;;;2.90;;
10465;SDS011;5280;42.600;23.556;2023-03-17T12:43:07;3.40;;;3.03;;
10465;SDS011;5280;42.600;23.556;2023-03-17T12:49:14;2.70;;;2.47;;
10465;SDS011;5280;42.600;23.556;2023-03-17T12:52:04;2.63;;;2.33;;
10465;SDS011;5280;42.600;23.556;2023-03-17T12:54:44;2.20;;;2.00;;
10465;SDS011;5280;42.600;23.556;2023-03-17T12:57:16;3.00;;;2.40;;
10465;SDS011;5280;42.600;23.556;2023-03-17T12:59:45;2.60;;;2.30;;
10465;SDS011;5280;42.600;23.556;2023-03-17T13:02:16;2.50;;;1.90;;
10465;SDS011;5280;42.600;23.556;2023-03-17T13:04:49;2.13;;;2.03;;
10465;SDS011;5280;42.600;23.556;2023-03-17T13:07:22;2.60;;;2.40;;
10465;SDS011;5280;42.600;23.556;2023-03-17T13:15:48;5.00;;;2.43;;
10465;SDS011;5280;42.600;23.556;2023-03-17T13:21:26;3.27;;;2.30;;
10465;SDS011;5280;42.600;23.556;2023-03-17T13:23:54;2.57;;;2.23;;
10465;SDS011;5280;42.600;23.556;2023-03-17T13:29:38;2.50;;;2.30;;
10465;SDS011;5280;42.600;23.556;2023-03-17T13:35:09;2.40;;;2.20;;
10465;SDS011;5280;42.600;23.556;2023-03-17T13:37:48;3.37;;;2.30;;
10465;SDS011;5280;42.600;23.556;2023-03-17T13:40:32;2.73;;;2.53;;
10465;SDS011;5280;42.600;23.556;2023-03-17T13:43:10;2.50;;;2.10;;
10465;SDS011;5280;42.600;23.556;2023-03-17T13:45:54;2.13;;;1.60;;
10465;SDS011;5280;42.600;23.556;2023-03-17T13:48:41;1.50;;;1.40;;
10465;SDS011;5280;42.600;23.556;2023-03-17T13:51:11;1.20;;;1.10;;
10465;SDS011;5280;42.600;23.556;2023-03-17T13:53:46;1.70;;;1.40;;
10465;SDS011;5280;42.600;23.556;2023-03-17T13:56:21;2.43;;;1.50;;
10465;SDS011;5280;42.600;23.556;2023-03-17T14:01:50;1.47;;;1.47;;
10465;SDS011;5280;42.600;23.556;2023-03-17T14:04:23;1.53;;;1.43;;
10465;SDS011;5280;42.600;23.556;2023-03-17T14:06:52;1.93;;;1.67;;
10465;SDS011;5280;42.600;23.556;2023-03-17T14:09:27;1.43;;;1.33;;
10465;SDS011;5280;42.600;23.556;2023-03-17T14:12:01;1.80;;;1.70;;
10465;SDS011;5280;42.600;23.556;2023-03-17T14:14:37;1.80;;;1.70;;
10465;SDS011;5280;42.600;23.556;2023-03-17T14:17:12;2.63;;;2.00;;
10465;SDS011;5280;42.600;23.556;2023-03-17T14:22:37;2.10;;;1.90;;
10465;SDS011;5280;42.600;23.556;2023-03-17T14:25:06;1.83;;;1.73;;
10465;SDS011;5280;42.600;23.556;2023-03-17T14:27:40;2.53;;;1.50;;
10465;SDS011;5280;42.600;23.556;2023-03-17T14:30:15;1.70;;;1.60;;
10465;SDS011;5280;42.600;23.556;2023-03-17T14:32:46;2.73;;;2.53;;
10465;SDS011;5280;42.600;23.556;2023-03-17T14:35:15;2.17;;;2.00;;
10465;SDS011;5280;42.600;23.556;2023-03-17T14:37:43;3.47;;;3.27;;
10465;SDS011;5280;42.600;23.556;2023-03-17T14:40:17;2.13;;;1.97;;
10465;SDS011;5280;42.600;23.556;2023-03-17T14:42:46;2.67;;;2.00;;
10465;SDS011;5280;42.600;23.556;2023-03-17T14:45:18;2.63;;;2.40;;
10465;SDS011;5280;42.600;23.556;2023-03-17T14:47:49;2.87;;;2.67;;
10465;SDS011;5280;42.600;23.556;2023-03-17T14:50:26;2.00;;;1.90;;
10465;SDS011;5280;42.600;23.556;2023-03-17T14:52:56;2.20;;;1.67;;
10465;SDS011;5280;42.600;23.556;2023-03-17T14:55:27;2.00;;;1.87;;
10465;SDS011;5280;42.600;23.556;2023-03-17T14:58:05;1.90;;;1.80;;
10465;SDS011;5280;42.600;23.556;2023-03-17T15:00:34;2.60;;;2.07;;
10465;SDS011;5280;42.600;23.556;2023-03-17T15:03:14;2.40;;;2.20;;
10465;SDS011;5280;42.600;23.556;2023-03-17T15:05:43;2.70;;;2.00;;
10465;SDS011;5280;42.600;23.556;2023-03-17T15:08:27;2.43;;;2.23;;
10465;SDS011;5280;42.600;23.556;2023-03-17T15:11:03;2.50;;;2.20;;
10465;SDS011;5280;42.600;23.556;2023-03-17T15:13:32;3.43;;;2.40;;
10465;SDS011;5280;42.600;23.556;2023-03-17T15:16:04;2.67;;;2.03;;
10465;SDS011;5280;42.600;23.556;2023-03-17T15:18:33;2.47;;;2.27;;
10465;SDS011;5280;42.600;23.556;2023-03-17T15:21:01;2.60;;;2.40;;
10465;SDS011;5280;42.600;23.556;2023-03-17T15:23:28;2.33;;;2.10;;
10465;SDS011;5280;42.600;23.556;2023-03-17T15:25:55;4.00;;;2.13;;
10465;SDS011;5280;42.600;23.556;2023-03-17T15:28:24;1.87;;;1.77;;
10465;SDS011;5280;42.600;23.556;2023-03-17T15:30:55;2.40;;;2.20;;
10465;SDS011;5280;42.600;23.556;2023-03-17T15:33:31;2.87;;;2.10;;
10465;SDS011;5280;42.600;23.556;2023-03-17T15:36:02;2.63;;;2.40;;